createdAt,value
2018-05-23T00:01:07.982Z,61.90
2018-05-23T00:03:35.471Z,59.43
2018-05-23T00:06:02.953Z,63.13
2018-05-23T00:08:30.421Z,60.87
2018-05-23T00:10:58.679Z,65.30
2018-05-23T00:13:26.161Z,63.60
2018-05-23T00:15:54.433Z,65.60
2018-05-23T00:18:21.900Z,64.53
2018-05-23T00:20:50.150Z,67.07
2018-05-23T00:23:17.625Z,63.07
2018-05-23T00:25:45.906Z,63.90
2018-05-23T00:28:14.133Z,67.60
2018-05-23T00:30:41.611Z,69.23
2018-05-23T00:33:09.080Z,69.83
2018-05-23T00:35:37.342Z,65.17
2018-05-23T00:38:06.327Z,66.13
2018-05-23T00:40:33.823Z,70.13
2018-05-23T00:43:02.060Z,72.57
2018-05-23T00:45:29.537Z,74.00
2018-05-23T00:47:57.006Z,78.93
2018-05-23T00:50:25.262Z,76.80
2018-05-23T00:52:52.732Z,80.27
2018-05-23T00:55:32.930Z,83.03
2018-05-23T00:58:00.396Z,82.20
2018-05-23T01:00:27.902Z,82.00
2018-05-23T01:02:56.146Z,84.03
2018-05-23T01:05:24.412Z,82.60
2018-05-23T01:07:51.892Z,82.53
2018-05-23T01:10:20.142Z,86.83
2018-05-23T01:12:47.633Z,83.23
2018-05-23T01:15:15.866Z,87.50
2018-05-23T01:17:43.342Z,87.93
2018-05-23T01:20:10.812Z,86.23
2018-05-23T01:22:39.069Z,87.33
2018-05-23T01:25:06.537Z,92.17
2018-05-23T01:27:34.830Z,83.67
2018-05-23T01:30:03.062Z,86.10
2018-05-23T01:32:30.554Z,85.37
2018-05-23T01:34:58.786Z,87.53
2018-05-23T01:37:26.273Z,84.10
2018-05-23T01:39:53.750Z,85.87
2018-05-23T01:42:21.220Z,85.33
2018-05-23T01:44:48.696Z,74.07
2018-05-23T01:47:16.169Z,78.10
2018-05-23T01:49:44.577Z,72.67
2018-05-23T01:52:12.817Z,77.30
2018-05-23T01:54:41.072Z,75.63
2018-05-23T01:57:08.555Z,74.40
2018-05-23T01:59:36.045Z,73.60
2018-05-23T02:02:04.273Z,78.57
2018-05-23T02:04:31.763Z,78.07
2018-05-23T02:06:59.245Z,79.87
2018-05-23T02:09:26.721Z,80.63
2018-05-23T02:11:54.198Z,80.90
2018-05-23T02:14:21.669Z,88.00
2018-05-23T02:16:49.147Z,83.17
2018-05-23T02:19:17.405Z,80.53
2018-05-23T02:21:44.881Z,77.73
2018-05-23T02:24:13.122Z,77.70
2018-05-23T02:26:40.598Z,83.57
2018-05-23T02:29:08.066Z,80.57
2018-05-23T02:31:36.312Z,82.90
2018-05-23T02:34:03.799Z,85.60
2018-05-23T02:36:32.051Z,82.37
2018-05-23T02:38:59.514Z,85.97
2018-05-23T02:41:26.990Z,86.30
2018-05-23T02:43:55.222Z,81.43
2018-05-23T02:46:22.699Z,83.10
2018-05-23T02:48:50.173Z,78.27
2018-05-23T02:51:18.425Z,72.50
2018-05-23T02:53:46.005Z,68.03
2018-05-23T02:56:14.249Z,73.93
2018-05-23T02:58:41.716Z,74.67
2018-05-23T03:01:09.198Z,73.37
2018-05-23T03:03:37.459Z,68.33
2018-05-23T03:06:05.710Z,68.93
2018-05-23T03:08:33.191Z,75.23
2018-05-23T03:11:00.651Z,75.23
2018-05-23T03:13:28.947Z,81.67
2018-05-23T03:15:56.409Z,71.30
2018-05-23T03:18:23.905Z,75.20
2018-05-23T03:20:51.376Z,75.73
2018-05-23T03:23:18.841Z,76.17
2018-05-23T03:25:47.085Z,75.73
2018-05-23T03:28:14.842Z,73.90
2018-05-23T03:30:42.305Z,73.90
2018-05-23T03:33:09.788Z,71.97
2018-05-23T03:35:38.066Z,69.37
2018-05-23T03:38:06.326Z,73.10
2018-05-23T03:40:33.794Z,72.43
2018-05-23T03:43:02.048Z,72.13
2018-05-23T03:45:29.532Z,68.20
2018-05-23T03:47:57.782Z,68.27
2018-05-23T03:50:26.217Z,70.43
2018-05-23T03:52:53.701Z,67.77
2018-05-23T03:55:21.285Z,72.47
2018-05-23T03:57:48.688Z,68.13
2018-05-23T04:03:29.742Z,73.07
2018-05-23T04:06:09.205Z,68.83
2018-05-23T04:08:36.709Z,70.07
2018-05-23T04:11:04.202Z,67.00
2018-05-23T04:13:32.454Z,66.57
2018-05-23T04:15:59.904Z,61.53
2018-05-23T04:18:27.363Z,65.43
2018-05-23T04:20:55.622Z,63.27
2018-05-23T04:23:23.096Z,65.70
2018-05-23T04:25:50.577Z,59.77
2018-05-23T04:28:18.817Z,63.77
2018-05-23T04:30:46.299Z,65.10
2018-05-23T04:33:15.550Z,64.10
2018-05-23T04:35:43.070Z,64.07
2018-05-23T04:38:10.547Z,66.10
2018-05-23T04:40:38.031Z,63.67
2018-05-23T04:43:05.512Z,58.10
2018-05-23T04:45:32.974Z,56.23
2018-05-23T04:48:01.221Z,61.90
2018-05-23T04:50:28.717Z,55.27
2018-05-23T04:52:56.953Z,51.57
2018-05-23T04:55:24.427Z,53.33
2018-05-23T04:57:51.914Z,54.57
2018-05-23T05:00:20.150Z,57.67
2018-05-23T05:02:47.630Z,54.23
2018-05-23T05:05:15.873Z,54.17
2018-05-23T05:07:43.345Z,55.90
2018-05-23T05:10:10.814Z,54.63
2018-05-23T05:12:39.075Z,52.83
2018-05-23T05:15:06.560Z,55.70
2018-05-23T05:17:34.086Z,53.30
2018-05-23T05:20:01.568Z,58.57
2018-05-23T05:22:29.699Z,58.63
2018-05-23T05:24:57.237Z,52.83
2018-05-23T05:27:25.425Z,53.00
2018-05-23T05:29:52.899Z,53.57
2018-05-23T05:32:21.891Z,50.90
2018-05-23T05:34:50.138Z,50.37
2018-05-23T05:37:17.624Z,53.40
2018-05-23T05:39:45.115Z,51.93
2018-05-23T05:42:12.592Z,53.27
2018-05-23T05:44:40.079Z,52.87
2018-05-23T05:47:07.553Z,50.20
2018-05-23T05:49:35.797Z,52.37
2018-05-23T05:52:03.262Z,51.83
2018-05-23T05:54:30.751Z,50.87
2018-05-23T05:56:59.001Z,48.57
2018-05-23T05:59:26.532Z,52.50
2018-05-23T06:01:54.004Z,51.87
2018-05-23T06:04:21.491Z,49.00
2018-05-23T06:06:49.732Z,49.17
2018-05-23T06:09:17.219Z,47.83
2018-05-23T06:11:45.450Z,47.53
2018-05-23T06:14:12.926Z,47.10
2018-05-23T06:16:40.460Z,47.43
2018-05-23T06:19:08.930Z,49.07
2018-05-23T06:21:36.407Z,46.67
2018-05-23T06:24:03.901Z,49.00
2018-05-23T06:26:32.165Z,48.53
2018-05-23T06:28:59.637Z,46.83
2018-05-23T06:31:29.044Z,45.67
2018-05-23T06:33:57.276Z,44.87
2018-05-23T06:36:24.786Z,40.73
2018-05-23T06:38:52.310Z,41.67
2018-05-23T06:41:20.575Z,39.83
2018-05-23T06:43:48.044Z,39.83
2018-05-23T06:46:15.546Z,37.20
2018-05-23T06:48:43.019Z,34.67
2018-05-23T06:51:10.543Z,35.43
2018-05-23T06:53:38.035Z,36.43
2018-05-23T06:56:05.493Z,36.67
2018-05-23T06:58:32.999Z,34.30
2018-05-23T07:01:01.250Z,30.93
2018-05-23T07:03:29.493Z,29.17
2018-05-23T07:05:57.022Z,28.83
2018-05-23T07:08:24.453Z,23.57
2018-05-23T07:10:52.674Z,25.13
2018-05-23T07:13:20.155Z,21.83
2018-05-23T07:15:47.629Z,22.27
2018-05-23T07:18:16.599Z,20.53
2018-05-23T07:20:44.084Z,18.87
2018-05-23T07:23:12.333Z,19.10
2018-05-23T07:25:39.813Z,19.40
2018-05-23T07:28:08.162Z,18.03
2018-05-23T07:30:35.648Z,16.93
2018-05-23T07:33:03.903Z,16.77
2018-05-23T07:35:31.406Z,19.40
2018-05-23T07:37:59.642Z,17.17
2018-05-23T07:40:27.136Z,16.40
2018-05-23T07:42:54.600Z,18.77
2018-05-23T07:45:22.081Z,15.27
2018-05-23T07:47:49.554Z,14.20
2018-05-23T07:50:17.055Z,15.33
2018-05-23T07:52:44.523Z,14.77
2018-05-23T07:55:12.010Z,16.53
2018-05-23T07:57:39.502Z,15.90
2018-05-23T08:00:07.767Z,17.63
2018-05-23T08:02:35.275Z,12.77
2018-05-23T08:05:02.793Z,13.60
2018-05-23T08:07:31.032Z,12.93
2018-05-23T08:09:58.526Z,15.67
2018-05-23T08:12:26.757Z,15.47
2018-05-23T08:14:54.226Z,14.57
2018-05-23T08:17:21.713Z,13.27
2018-05-23T08:19:49.957Z,13.50
2018-05-23T08:22:17.441Z,12.70
2018-05-23T08:24:45.676Z,18.37
2018-05-23T08:27:13.181Z,12.80
2018-05-23T08:29:40.688Z,14.63
2018-05-23T08:32:08.121Z,12.00
2018-05-23T08:34:35.619Z,11.07
2018-05-23T08:37:03.098Z,10.80
2018-05-23T08:39:31.341Z,10.30
2018-05-23T08:41:58.840Z,14.50
2018-05-23T08:44:26.358Z,9.95
2018-05-23T08:46:53.876Z,9.18
2018-05-23T08:49:21.373Z,9.20
2018-05-23T08:51:48.842Z,12.00
2018-05-23T08:54:17.096Z,10.68
2018-05-23T08:56:44.569Z,9.90
2018-05-23T08:59:12.824Z,9.50
2018-05-23T09:01:40.318Z,10.80
2018-05-23T09:04:07.792Z,8.90
2018-05-23T09:06:35.274Z,9.57
2018-05-23T09:09:02.802Z,9.73
2018-05-23T09:11:30.305Z,9.90
2018-05-23T09:13:57.782Z,8.20
2018-05-23T09:16:26.008Z,8.70
2018-05-23T09:18:53.502Z,9.10
2018-05-23T09:21:20.983Z,8.18
2018-05-23T09:23:49.229Z,8.18
2018-05-23T09:26:16.706Z,8.25
2018-05-23T09:28:44.940Z,9.15
2018-05-23T09:31:12.419Z,7.50
2018-05-23T09:33:40.466Z,6.62
2018-05-23T09:36:07.950Z,11.10
2018-05-23T09:38:35.432Z,8.57
2018-05-23T09:41:03.678Z,7.03
2018-05-23T09:43:31.926Z,6.68
2018-05-23T09:45:59.392Z,5.75
2018-05-23T09:48:26.866Z,9.00
2018-05-23T09:50:55.110Z,7.62
2018-05-23T09:53:23.340Z,7.55
2018-05-23T09:55:50.837Z,5.75
2018-05-23T09:58:18.305Z,6.30
2018-05-23T10:00:45.804Z,5.80
2018-05-23T10:03:13.283Z,7.35
2018-05-23T10:05:40.778Z,6.15
2018-05-23T10:08:08.243Z,4.22
2018-05-23T10:10:35.725Z,6.05
2018-05-23T10:13:03.990Z,9.43
2018-05-23T10:15:32.238Z,5.10
2018-05-23T10:17:59.697Z,6.17
2018-05-23T10:20:27.180Z,4.63
2018-05-23T10:22:55.422Z,6.20
2018-05-23T10:25:22.910Z,6.47
2018-05-23T10:27:51.148Z,4.23
2018-05-23T10:30:18.656Z,6.07
2018-05-23T10:32:46.141Z,6.20
2018-05-23T10:35:13.625Z,4.23
2018-05-23T10:37:41.108Z,4.60
2018-05-23T10:40:09.357Z,3.30
2018-05-23T10:42:36.868Z,4.23
2018-05-23T10:45:04.336Z,6.63
2018-05-23T10:47:31.810Z,3.73
2018-05-23T10:49:59.327Z,5.63
2018-05-23T10:52:26.805Z,3.90
2018-05-23T10:54:54.272Z,4.17
2018-05-23T10:57:21.755Z,4.23
2018-05-23T10:59:49.228Z,3.90
2018-05-23T11:02:17.482Z,8.13
2018-05-23T11:04:44.957Z,4.33
2018-05-23T11:07:13.197Z,3.67
2018-05-23T11:09:40.690Z,3.20
2018-05-23T11:12:08.923Z,4.53
2018-05-23T11:14:36.449Z,3.57
2018-05-23T11:17:04.003Z,3.10
2018-05-23T11:19:31.419Z,5.67
2018-05-23T11:21:58.880Z,4.93
2018-05-23T11:24:26.351Z,3.70
2018-05-23T11:26:54.626Z,3.53
2018-05-23T11:29:22.118Z,7.40
2018-05-23T11:31:49.574Z,4.17
2018-05-23T11:34:17.037Z,4.73
2018-05-23T11:36:44.509Z,6.30
2018-05-23T11:39:11.982Z,5.33
2018-05-23T11:41:39.481Z,8.40
2018-05-23T11:44:06.955Z,6.03
2018-05-23T11:46:34.519Z,8.17
2018-05-23T11:49:01.913Z,5.90
2018-05-23T11:51:30.164Z,4.73
2018-05-23T11:53:57.912Z,5.30
2018-05-23T11:56:25.400Z,5.17
2018-05-23T11:58:53.648Z,5.23
2018-05-23T12:01:21.123Z,6.47
2018-05-23T12:03:48.589Z,5.27
2018-05-23T12:06:16.046Z,6.17
2018-05-23T12:08:43.529Z,5.90
2018-05-23T12:11:11.756Z,4.93
2018-05-23T12:13:39.248Z,5.53
2018-05-23T12:16:07.485Z,5.17
2018-05-23T12:18:34.954Z,5.63
2018-05-23T12:21:02.474Z,7.47
2018-05-23T12:23:29.957Z,8.97
2018-05-23T12:25:57.443Z,6.27
2018-05-23T12:28:25.702Z,8.40
2018-05-23T12:30:53.204Z,10.97
2018-05-23T12:33:20.676Z,9.17
2018-05-23T12:35:48.133Z,6.93
2018-05-23T12:38:16.061Z,7.60
2018-05-23T12:40:44.291Z,9.30
2018-05-23T12:43:11.791Z,6.80
2018-05-23T12:45:40.070Z,8.00
2018-05-23T12:48:08.369Z,8.63
2018-05-23T12:50:35.836Z,10.83
2018-05-23T12:53:03.294Z,8.43
2018-05-23T12:55:30.789Z,7.23
2018-05-23T12:57:58.266Z,9.00
2018-05-23T13:00:26.582Z,7.60
2018-05-23T13:02:53.977Z,8.27
2018-05-23T13:05:21.482Z,12.30
2018-05-23T13:07:48.956Z,7.80
2018-05-23T13:10:16.469Z,7.90
2018-05-23T13:12:44.008Z,8.77
2018-05-23T13:15:11.446Z,8.20
2018-05-23T13:17:39.384Z,8.90
2018-05-23T13:20:06.905Z,8.27
2018-05-23T13:22:35.147Z,7.93
2018-05-23T13:25:02.649Z,8.00
2018-05-23T13:27:30.999Z,7.40
2018-05-23T13:29:58.460Z,8.17
2018-05-23T13:32:26.703Z,9.20
2018-05-23T13:34:54.179Z,8.63
2018-05-23T13:37:22.426Z,7.57
2018-05-23T13:39:49.887Z,9.40
2018-05-23T13:42:17.357Z,8.17
2018-05-23T13:44:44.838Z,6.23
2018-05-23T13:47:13.089Z,7.47
2018-05-23T13:49:40.558Z,7.03
2018-05-23T13:52:08.815Z,6.13
2018-05-23T13:54:36.265Z,8.93
2018-05-23T13:57:03.765Z,10.93
2018-05-23T13:59:31.253Z,6.67
2018-05-23T14:01:58.730Z,10.13
2018-05-23T14:04:26.380Z,9.10
2018-05-23T14:06:55.402Z,7.13
2018-05-23T14:09:22.868Z,9.10
2018-05-23T14:11:51.941Z,6.17
2018-05-23T14:14:19.438Z,10.73
2018-05-23T14:16:46.898Z,5.87
2018-05-23T14:19:14.428Z,9.00
2018-05-23T14:21:41.874Z,8.03
2018-05-23T14:24:09.351Z,8.07
2018-05-23T14:26:37.581Z,9.27
2018-05-23T14:29:05.105Z,8.87
2018-05-23T14:31:33.157Z,6.57
2018-05-23T14:34:01.435Z,8.30
2018-05-23T14:36:29.783Z,6.73
2018-05-23T14:38:57.189Z,7.53
2018-05-23T14:41:24.654Z,9.07
2018-05-23T14:43:52.215Z,7.27
2018-05-23T14:46:19.604Z,9.40
2018-05-23T14:48:47.088Z,7.63
2018-05-23T14:51:15.326Z,8.90
2018-05-23T14:53:42.811Z,9.03
2018-05-23T14:56:11.098Z,9.70
2018-05-23T14:58:39.305Z,9.13
2018-05-23T15:01:06.801Z,7.13
2018-05-23T15:03:34.301Z,8.33
2018-05-23T15:06:01.774Z,8.87
2018-05-23T15:08:29.511Z,10.60
2018-05-23T15:10:56.813Z,8.33
2018-05-23T15:13:24.318Z,10.60
2018-05-23T15:15:51.754Z,12.70
2018-05-23T15:18:20.027Z,9.00
2018-05-23T15:20:48.293Z,8.73
2018-05-23T15:23:16.537Z,7.40
2018-05-23T15:25:44.021Z,9.40
2018-05-23T15:28:12.258Z,9.23
2018-05-23T15:30:39.716Z,8.73
2018-05-23T15:33:07.216Z,9.57
2018-05-23T15:35:35.441Z,10.03
2018-05-23T15:38:02.933Z,10.47
2018-05-23T15:40:30.423Z,9.67
2018-05-23T15:42:57.928Z,9.47
2018-05-23T15:45:25.392Z,8.63
2018-05-23T15:47:54.375Z,9.23
2018-05-23T15:50:23.378Z,9.47
2018-05-23T15:52:50.853Z,13.27
2018-05-23T15:55:19.090Z,13.50
2018-05-23T15:57:46.561Z,7.43
2018-05-23T16:00:14.681Z,8.33
2018-05-23T16:02:42.176Z,10.77
2018-05-23T16:05:09.758Z,9.03
2018-05-23T16:07:37.229Z,9.93
2018-05-23T16:10:05.494Z,10.77
2018-05-23T16:12:33.759Z,8.43
2018-05-23T16:15:02.007Z,7.33
2018-05-23T16:17:29.466Z,7.53
2018-05-23T16:19:56.956Z,6.87
2018-05-23T16:22:24.464Z,8.93
2018-05-23T16:24:51.949Z,6.00
2018-05-23T16:27:19.440Z,9.03
2018-05-23T16:29:46.941Z,7.20
2018-05-23T16:32:14.405Z,9.43
2018-05-23T16:34:41.894Z,7.23
2018-05-23T16:37:10.144Z,9.33
2018-05-23T16:39:37.664Z,9.77
2018-05-23T16:42:05.156Z,7.63
2018-05-23T16:44:32.769Z,8.80
2018-05-23T16:47:00.141Z,6.10
2018-05-23T16:49:27.610Z,7.83
2018-05-23T16:51:55.165Z,11.60
2018-05-23T16:54:22.681Z,8.50
2018-05-23T16:56:50.919Z,7.00
2018-05-23T16:59:18.425Z,6.00
2018-05-23T17:01:46.393Z,6.43
2018-05-23T17:04:13.910Z,9.63
2018-05-23T17:06:41.952Z,9.27
2018-05-23T17:09:09.432Z,5.30
2018-05-23T17:11:36.918Z,9.80
2018-05-23T17:14:04.481Z,8.30
2018-05-23T17:16:31.968Z,10.63
2018-05-23T17:18:59.531Z,10.73
2018-05-23T17:21:27.063Z,7.57
2018-05-23T17:23:54.526Z,5.30
2018-05-23T17:26:21.992Z,5.63
2018-05-23T17:28:49.521Z,8.20
2018-05-23T17:31:17.010Z,7.30
2018-05-23T17:33:45.325Z,7.50
2018-05-23T17:36:13.636Z,7.03
2018-05-23T17:38:41.133Z,9.00
2018-05-23T17:41:08.597Z,7.63
2018-05-23T17:43:36.116Z,5.83
2018-05-23T17:46:03.589Z,8.13
2018-05-23T17:48:31.061Z,7.83
2018-05-23T17:50:58.567Z,10.03
2018-05-23T17:53:26.049Z,4.03
2018-05-23T17:55:53.532Z,5.20
2018-05-23T17:58:21.015Z,6.10
2018-05-23T18:00:49.373Z,8.63
2018-05-23T18:03:16.936Z,6.37
2018-05-23T18:05:44.406Z,9.20
2018-05-23T18:08:12.742Z,6.63
2018-05-23T18:10:40.198Z,4.80
2018-05-23T18:13:07.666Z,7.33
2018-05-23T18:15:35.168Z,4.73
2018-05-23T18:18:02.649Z,7.13
2018-05-23T18:20:30.151Z,9.00
2018-05-23T18:22:58.409Z,6.47
2018-05-23T18:25:27.030Z,9.03
2018-05-23T18:27:55.423Z,5.73
2018-05-23T18:30:23.017Z,8.80
2018-05-23T18:32:50.537Z,7.13
2018-05-23T18:35:18.030Z,6.20
2018-05-23T18:37:45.559Z,7.37
2018-05-23T18:40:13.150Z,6.93
2018-05-23T18:42:40.630Z,8.10
2018-05-23T18:45:08.887Z,4.60
2018-05-23T18:47:37.906Z,6.53
2018-05-23T18:50:06.192Z,7.87
2018-05-23T18:52:34.440Z,7.40
2018-05-23T18:55:02.725Z,5.47
2018-05-23T18:57:31.037Z,5.70
2018-05-23T18:59:58.526Z,4.70
2018-05-23T19:02:26.055Z,5.73
2018-05-23T19:04:54.296Z,5.23
2018-05-23T19:07:22.542Z,7.70
2018-05-23T19:09:50.042Z,4.47
2018-05-23T19:12:17.556Z,8.23
2018-05-23T19:14:45.007Z,8.27
2018-05-23T19:17:12.502Z,3.97
2018-05-23T19:19:40.768Z,7.10
2018-05-23T19:22:09.014Z,9.63
2018-05-23T19:24:36.541Z,5.63
2018-05-23T19:27:04.016Z,5.83
2018-05-23T19:29:31.506Z,5.07
2018-05-23T19:31:59.774Z,5.87
2018-05-23T19:34:27.253Z,4.30
2018-05-23T19:36:54.755Z,4.60
2018-05-23T19:39:22.237Z,4.23
2018-05-23T19:41:49.705Z,9.47
2018-05-23T19:44:17.970Z,6.93
2018-05-23T19:46:45.472Z,5.83
2018-05-23T19:49:12.947Z,5.77
2018-05-23T19:51:40.423Z,4.70
2018-05-23T19:54:07.927Z,5.73
2018-05-23T19:56:35.485Z,5.67
2018-05-23T19:59:02.933Z,6.23
2018-05-23T20:01:31.172Z,6.60
2018-05-23T20:03:58.672Z,3.90
2018-05-23T20:06:26.946Z,5.17
2018-05-23T20:08:54.423Z,4.50
2018-05-23T20:11:21.889Z,10.17
2018-05-23T20:13:49.378Z,7.63
2018-05-23T20:16:16.889Z,6.97
2018-05-23T20:18:44.375Z,5.03
2018-05-23T20:21:12.828Z,7.03
2018-05-23T20:23:40.282Z,5.77
2018-05-23T20:26:07.760Z,6.57
2018-05-23T20:28:35.223Z,6.80
2018-05-23T20:31:02.732Z,3.87
2018-05-23T20:33:30.973Z,6.53
2018-05-23T20:35:59.207Z,6.43
2018-05-23T20:38:26.674Z,5.53
2018-05-23T20:40:54.212Z,5.67
2018-05-23T20:43:21.669Z,5.07
2018-05-23T20:45:49.151Z,5.97
2018-05-23T20:48:17.569Z,4.03
2018-05-23T20:50:45.806Z,4.63
2018-05-23T20:53:13.300Z,5.27
2018-05-23T20:55:41.539Z,5.30
2018-05-23T20:58:09.006Z,5.63
2018-05-23T21:00:37.255Z,6.10
2018-05-23T21:03:04.748Z,5.20
2018-05-23T21:05:33.078Z,4.93
2018-05-23T21:08:01.461Z,6.73
2018-05-23T21:10:28.946Z,7.07
2018-05-23T21:12:57.935Z,5.27
2018-05-23T21:15:25.403Z,5.57
2018-05-23T21:17:53.508Z,5.27
2018-05-23T21:20:20.991Z,5.57
2018-05-23T21:22:48.453Z,5.20
2018-05-23T21:25:15.914Z,4.83
2018-05-23T21:27:43.400Z,4.53
2018-05-23T21:30:10.924Z,6.57
2018-05-23T21:32:38.390Z,6.77
2018-05-23T21:35:05.855Z,6.13
2018-05-23T21:37:33.330Z,5.43
2018-05-23T21:40:01.566Z,7.03
2018-05-23T21:42:29.045Z,4.23
2018-05-23T21:44:56.510Z,5.10
2018-05-23T21:47:24.733Z,7.27
2018-05-23T21:49:52.201Z,5.87
2018-05-23T21:52:19.679Z,4.60
2018-05-23T21:54:47.151Z,5.93
2018-05-23T21:57:15.397Z,4.47
2018-05-23T21:59:42.890Z,5.37
2018-05-23T22:02:11.118Z,4.97
2018-05-23T22:04:38.620Z,5.13
2018-05-23T22:07:06.078Z,6.20
2018-05-23T22:09:34.338Z,6.17
2018-05-23T22:12:01.814Z,7.40
2018-05-23T22:14:30.074Z,6.10
2018-05-23T22:16:58.318Z,4.70
2018-05-23T22:19:25.789Z,8.60
2018-05-23T22:21:53.245Z,4.93
2018-05-23T22:24:20.723Z,8.07
2018-05-23T22:26:48.955Z,3.87
2018-05-23T22:29:16.438Z,3.97
2018-05-23T22:31:45.430Z,5.87
2018-05-23T22:34:12.914Z,5.33
2018-05-23T22:36:40.397Z,3.83
2018-05-23T22:39:07.871Z,5.10
2018-05-23T22:41:35.357Z,7.70
2018-05-23T22:44:03.601Z,5.27
2018-05-23T22:46:31.069Z,5.03
2018-05-23T22:48:58.523Z,4.30
2018-05-23T22:51:26.012Z,3.57
2018-05-23T22:53:54.254Z,8.20
2018-05-23T22:56:21.723Z,6.03
2018-05-23T22:58:49.185Z,5.57
2018-05-23T23:01:16.737Z,4.87
2018-05-23T23:03:44.194Z,4.67
2018-05-23T23:06:12.275Z,6.23
2018-05-23T23:08:40.506Z,4.90
2018-05-23T23:11:07.983Z,6.87
2018-05-23T23:13:35.479Z,4.77
2018-05-23T23:16:03.003Z,4.70
2018-05-23T23:18:30.475Z,8.77
2018-05-23T23:20:58.717Z,5.60
2018-05-23T23:23:26.219Z,6.07
2018-05-23T23:25:54.461Z,7.63
2018-05-23T23:28:21.933Z,3.93
2018-05-23T23:30:50.180Z,5.70
2018-05-23T23:33:17.654Z,6.83
2018-05-23T23:35:45.133Z,6.07
2018-05-23T23:38:13.373Z,8.00
2018-05-23T23:40:40.894Z,4.13
2018-05-23T23:43:08.378Z,4.30
2018-05-23T23:45:35.860Z,4.77
2018-05-23T23:48:04.109Z,3.97
2018-05-23T23:50:31.576Z,6.03
2018-05-23T23:52:59.054Z,4.53
2018-05-23T23:55:27.278Z,4.50
2018-05-23T23:57:54.752Z,4.73
